createdAt,value
2023-04-27T00:01:49.763Z,67.17
2023-04-27T00:04:17.994Z,67.02
2023-04-27T00:06:45.898Z,67.15
2023-04-27T00:09:14.024Z,67.34
2023-04-27T00:11:41.930Z,67.82
2023-04-27T00:14:09.764Z,67.91
2023-04-27T00:16:37.693Z,68.33
2023-04-27T00:19:06.893Z,68.52
2023-04-27T00:21:34.656Z,68.65
2023-04-27T00:24:02.486Z,68.88
2023-04-27T00:26:30.212Z,68.88
2023-04-27T00:28:57.948Z,69.08
2023-04-27T00:31:25.894Z,69.11
2023-04-27T00:33:53.661Z,69.18
2023-04-27T00:36:22.695Z,69.76
2023-04-27T00:38:50.428Z,69.38
2023-04-27T00:41:18.197Z,69.80
2023-04-27T00:43:47.197Z,69.34
2023-04-27T00:46:16.289Z,68.98
2023-04-27T00:48:45.526Z,68.71
2023-04-27T00:51:13.322Z,68.19
2023-04-27T00:53:42.889Z,68.39
2023-04-27T00:56:11.073Z,68.53
2023-04-27T00:58:38.866Z,68.36
2023-04-27T01:01:06.843Z,68.32
2023-04-27T01:03:34.765Z,68.29
2023-04-27T01:06:02.689Z,68.58
2023-04-27T01:08:30.646Z,67.96
2023-04-27T01:10:59.716Z,68.41
2023-04-27T01:13:27.563Z,68.31
2023-04-27T01:15:55.345Z,68.06
2023-04-27T01:18:23.404Z,68.52
2023-04-27T01:20:51.598Z,68.80
2023-04-27T01:23:20.801Z,68.65
2023-04-27T01:25:48.606Z,68.96
2023-04-27T01:28:16.432Z,69.62
2023-04-27T01:30:44.180Z,69.35
2023-04-27T01:33:11.954Z,69.14
2023-04-27T01:35:39.654Z,69.48
2023-04-27T01:38:07.481Z,69.48
2023-04-27T01:40:36.607Z,69.65
2023-04-27T01:43:04.354Z,69.54
2023-04-27T01:45:32.112Z,69.57
2023-04-27T01:47:59.899Z,69.82
2023-04-27T01:50:27.936Z,69.95
2023-04-27T01:52:55.714Z,69.95
2023-04-27T01:55:23.636Z,70.15
2023-04-27T01:57:52.759Z,70.40
2023-04-27T02:00:20.900Z,70.62
2023-04-27T02:02:51.220Z,70.77
2023-04-27T02:05:19.262Z,70.96
2023-04-27T02:07:46.945Z,71.22
2023-04-27T02:10:14.689Z,71.25
2023-04-27T02:12:42.490Z,71.68
2023-04-27T02:15:11.855Z,71.42
2023-04-27T02:17:40.048Z,71.45
2023-04-27T02:20:08.986Z,71.17
2023-04-27T02:22:36.954Z,71.51
2023-04-27T02:25:05.434Z,71.01
2023-04-27T02:27:33.172Z,70.77
2023-04-27T02:30:05.460Z,71.06
2023-04-27T02:32:35.269Z,70.93
2023-04-27T02:35:03.180Z,71.08
2023-04-27T02:37:31.074Z,71.49
2023-04-27T02:39:58.977Z,71.58
2023-04-27T02:42:27.127Z,71.53
2023-04-27T02:44:55.479Z,71.65
2023-04-27T02:47:23.286Z,71.52
2023-04-27T02:49:52.953Z,71.68
2023-04-27T02:52:20.783Z,72.14
2023-04-27T02:54:48.755Z,72.44
2023-04-27T02:57:16.467Z,72.94
2023-04-27T02:59:44.244Z,73.07
2023-04-27T03:02:11.956Z,73.65
2023-04-27T03:04:39.741Z,73.83
2023-04-27T03:07:08.929Z,73.96
2023-04-27T03:09:36.778Z,74.02
2023-04-27T03:12:05.194Z,74.05
2023-04-27T03:14:32.933Z,74.02
2023-04-27T03:17:01.924Z,73.88
2023-04-27T03:19:29.837Z,74.18
2023-04-27T03:21:57.541Z,74.08
2023-04-27T03:24:26.751Z,74.02
2023-04-27T03:26:54.492Z,74.14
2023-04-27T03:29:22.169Z,73.96
2023-04-27T03:31:49.976Z,74.32
2023-04-27T03:34:17.924Z,74.55
2023-04-27T03:36:45.843Z,74.95
2023-04-27T03:39:13.939Z,75.10
2023-04-27T03:41:43.258Z,75.63
2023-04-27T03:44:10.981Z,75.69
2023-04-27T03:46:38.733Z,75.71
2023-04-27T03:49:06.672Z,75.34
2023-04-27T03:51:34.612Z,76.03
2023-04-27T03:54:02.702Z,75.95
2023-04-27T03:56:30.692Z,75.74
2023-04-27T03:58:59.829Z,75.68
2023-04-27T04:01:27.584Z,75.58
2023-04-27T04:03:55.490Z,75.23
2023-04-27T04:06:23.385Z,75.36
2023-04-27T04:08:51.068Z,75.04
2023-04-27T04:11:18.794Z,74.99
2023-04-27T04:13:47.442Z,75.17
2023-04-27T04:16:16.512Z,75.28
2023-04-27T04:18:44.256Z,74.84
2023-04-27T04:21:12.075Z,75.17
2023-04-27T04:23:41.232Z,75.21
2023-04-27T04:26:09.963Z,75.00
2023-04-27T04:28:38.437Z,74.89
2023-04-27T04:31:06.624Z,75.12
2023-04-27T04:33:35.953Z,74.75
2023-04-27T04:36:05.067Z,74.76
2023-04-27T04:38:33.828Z,74.65
2023-04-27T04:41:01.678Z,74.66
2023-04-27T04:43:29.532Z,74.81
2023-04-27T04:45:57.296Z,74.92
2023-04-27T04:48:25.679Z,75.38
2023-04-27T04:50:54.816Z,75.64
2023-04-27T04:53:22.606Z,75.33
2023-04-27T04:55:50.324Z,75.45
2023-04-27T04:58:18.101Z,75.66
2023-04-27T05:00:45.831Z,75.14
2023-04-27T05:03:13.668Z,75.03
2023-04-27T05:05:41.517Z,75.24
2023-04-27T05:08:10.813Z,75.03
2023-04-27T05:10:38.544Z,74.26
2023-04-27T05:13:07.288Z,74.12
2023-04-27T05:15:35.073Z,74.16
2023-04-27T05:18:02.929Z,73.91
2023-04-27T05:20:30.696Z,73.91
2023-04-27T05:22:58.504Z,73.28
2023-04-27T05:25:27.661Z,72.98
2023-04-27T05:27:55.455Z,72.61
2023-04-27T05:30:23.424Z,72.67
2023-04-27T05:32:51.448Z,71.83
2023-04-27T05:35:19.273Z,71.24
2023-04-27T05:37:47.092Z,71.21
2023-04-27T05:40:16.439Z,70.43
2023-04-27T05:42:47.185Z,70.09
2023-04-27T05:45:15.273Z,69.68
2023-04-27T05:47:43.335Z,69.57
2023-04-27T05:50:11.775Z,68.75
2023-04-27T05:52:39.773Z,67.64
2023-04-27T05:55:09.106Z,67.61
2023-04-27T05:57:36.963Z,67.79
2023-04-27T06:00:11.141Z,67.24
2023-04-27T06:02:39.325Z,66.46
2023-04-27T06:05:08.657Z,66.73
2023-04-27T06:07:37.626Z,67.02
2023-04-27T06:10:06.119Z,66.60
2023-04-27T06:12:34.161Z,66.65
2023-04-27T06:15:03.879Z,66.54
2023-04-27T06:17:33.198Z,65.93
2023-04-27T06:20:01.368Z,65.16
2023-04-27T06:22:29.298Z,64.66
2023-04-27T06:24:57.275Z,64.14
2023-04-27T06:27:25.306Z,63.89
2023-04-27T06:29:53.286Z,64.16
2023-04-27T06:32:21.196Z,64.44
2023-04-27T06:34:51.154Z,64.81
2023-04-27T06:37:19.140Z,65.00
2023-04-27T06:39:47.508Z,63.94
2023-04-27T06:42:15.476Z,63.74
2023-04-27T06:44:43.339Z,63.85
2023-04-27T06:47:11.273Z,63.04
2023-04-27T06:49:39.384Z,63.27
2023-04-27T06:52:08.531Z,63.21
2023-04-27T06:54:36.361Z,63.22
2023-04-27T06:57:04.338Z,63.48
2023-04-27T06:59:32.100Z,62.83
2023-04-27T07:02:00.391Z,62.94
2023-04-27T07:04:28.549Z,63.31
2023-04-27T07:06:57.385Z,63.32
2023-04-27T07:09:27.968Z,63.17
2023-04-27T07:11:57.281Z,63.37
2023-04-27T07:14:25.070Z,63.05
2023-04-27T07:16:52.913Z,62.90
2023-04-27T07:19:20.635Z,62.98
2023-04-27T07:21:48.400Z,62.39
2023-04-27T07:24:16.436Z,61.33
2023-04-27T07:26:45.599Z,60.85
2023-04-27T07:29:26.534Z,59.95
2023-04-27T07:31:55.651Z,57.77
2023-04-27T07:34:24.005Z,57.54
2023-04-27T07:36:54.169Z,57.28
2023-04-27T07:39:22.296Z,57.06
2023-04-27T07:41:51.815Z,56.75
2023-04-27T07:44:20.149Z,56.42
2023-04-27T07:46:48.968Z,56.53
2023-04-27T07:49:16.854Z,56.40
2023-04-27T07:51:44.732Z,55.54
2023-04-27T07:54:12.506Z,54.89
2023-04-27T07:56:42.738Z,53.65
2023-04-27T07:59:12.498Z,53.18
2023-04-27T08:01:40.659Z,52.73
2023-04-27T08:04:08.794Z,51.80
2023-04-27T08:06:37.167Z,50.67
2023-04-27T08:09:06.235Z,50.72
2023-04-27T08:11:34.242Z,49.39
2023-04-27T08:14:02.051Z,48.43
2023-04-27T08:16:31.337Z,48.00
2023-04-27T08:19:00.700Z,46.52
2023-04-27T08:21:30.523Z,45.24
2023-04-27T08:23:58.337Z,45.37
2023-04-27T08:26:26.453Z,45.76
2023-04-27T08:28:54.437Z,45.15
2023-04-27T08:31:22.260Z,45.02
2023-04-27T08:33:51.430Z,44.49
2023-04-27T08:36:19.391Z,43.72
2023-04-27T08:38:47.288Z,43.72
2023-04-27T08:41:22.211Z,43.25
2023-04-27T08:43:51.269Z,43.23
2023-04-27T08:46:23.251Z,42.24
2023-04-27T08:48:53.614Z,41.95
2023-04-27T08:51:22.833Z,41.75
2023-04-27T08:53:52.195Z,41.15
2023-04-27T08:56:20.658Z,41.05
2023-04-27T08:58:48.829Z,40.67
2023-04-27T09:01:17.165Z,41.19
2023-04-27T09:03:46.828Z,41.56
2023-04-27T09:06:16.582Z,40.51
2023-04-27T09:08:46.360Z,39.13
2023-04-27T09:11:14.681Z,39.59
2023-04-27T09:13:45.343Z,39.04
2023-04-27T09:16:15.147Z,37.59
2023-04-27T09:18:44.625Z,36.76
2023-04-27T09:21:12.381Z,37.73
2023-04-27T09:23:41.898Z,37.50
2023-04-27T09:26:09.798Z,36.43
2023-04-27T09:28:41.286Z,36.11
2023-04-27T09:31:10.859Z,36.28
2023-04-27T09:33:39.141Z,36.04
2023-04-27T09:36:08.239Z,36.15
2023-04-27T09:38:36.024Z,36.43
2023-04-27T09:41:05.351Z,36.34
2023-04-27T09:43:33.377Z,36.56
2023-04-27T09:46:01.722Z,36.16
2023-04-27T09:48:29.557Z,36.14
2023-04-27T09:50:57.545Z,35.39
2023-04-27T09:53:31.597Z,35.16
2023-04-27T09:56:14.339Z,34.95
2023-04-27T09:58:50.567Z,34.51
2023-04-27T10:01:27.633Z,34.48
2023-04-27T10:04:08.294Z,34.65
2023-04-27T10:07:01.387Z,34.71
2023-04-27T10:09:35.319Z,33.54
2023-04-27T10:12:17.127Z,33.98
2023-04-27T10:14:55.471Z,34.10
2023-04-27T10:17:30.095Z,34.09
2023-04-27T10:19:59.758Z,34.14
2023-04-27T10:22:40.141Z,34.01
2023-04-27T10:25:22.100Z,34.13
2023-04-27T10:27:52.904Z,33.66
2023-04-27T10:30:21.861Z,34.50
2023-04-27T10:32:54.262Z,33.91
2023-04-27T10:35:22.923Z,33.37
2023-04-27T10:37:52.140Z,32.63
2023-04-27T10:40:19.985Z,32.67
2023-04-27T10:42:49.734Z,32.72
2023-04-27T10:45:31.410Z,32.45
2023-04-27T10:48:01.665Z,32.15
2023-04-27T10:50:29.885Z,32.87
2023-04-27T10:53:02.301Z,32.78
2023-04-27T10:55:31.214Z,32.61
2023-04-27T10:58:00.166Z,32.28
2023-04-27T11:00:32.397Z,31.96
2023-04-27T11:03:17.414Z,31.37
2023-04-27T11:05:47.016Z,30.98
2023-04-27T11:08:17.162Z,30.84
2023-04-27T11:10:47.600Z,29.86
2023-04-27T11:13:17.412Z,30.39
2023-04-27T11:15:51.580Z,30.39
2023-04-27T11:18:20.931Z,29.69
2023-04-27T11:20:51.041Z,29.54
2023-04-27T11:23:26.817Z,30.20
2023-04-27T11:25:55.407Z,29.34
2023-04-27T11:28:24.345Z,28.97
2023-04-27T11:31:00.908Z,29.03
2023-04-27T11:33:29.453Z,29.47
2023-04-27T11:35:58.260Z,28.73
2023-04-27T11:38:27.623Z,28.76
2023-04-27T11:41:02.763Z,28.68
2023-04-27T11:43:31.162Z,28.47
2023-04-27T11:46:04.248Z,28.84
2023-04-27T11:48:32.404Z,28.87
2023-04-27T11:51:01.464Z,29.01
2023-04-27T11:53:33.984Z,29.08
2023-04-27T11:56:02.700Z,29.49
2023-04-27T11:58:30.996Z,29.39
2023-04-27T12:01:00.206Z,29.43
2023-04-27T12:03:30.514Z,29.46
2023-04-27T12:06:11.491Z,29.62
2023-04-27T12:08:47.021Z,29.83
2023-04-27T12:11:15.058Z,29.13
2023-04-27T12:13:42.913Z,28.84
2023-04-27T12:16:12.280Z,28.60
2023-04-27T12:18:40.033Z,28.58
2023-04-27T12:21:08.518Z,28.64
2023-04-27T12:23:36.973Z,28.42
2023-04-27T12:26:05.114Z,28.48
2023-04-27T12:28:32.939Z,28.52
2023-04-27T12:31:00.859Z,29.43
2023-04-27T12:33:30.180Z,28.89
2023-04-27T12:35:57.876Z,28.46
2023-04-27T12:38:25.926Z,28.45
2023-04-27T12:40:53.675Z,28.70
2023-04-27T12:43:21.558Z,28.89
2023-04-27T12:45:49.368Z,29.17
2023-04-27T12:48:17.813Z,28.87
2023-04-27T12:50:47.179Z,29.02
2023-04-27T12:53:14.836Z,29.36
2023-04-27T12:55:42.628Z,29.31
2023-04-27T12:58:10.276Z,29.38
2023-04-27T13:00:38.566Z,28.87
2023-04-27T13:03:08.137Z,29.17
2023-04-27T13:05:36.682Z,29.34
2023-04-27T13:08:06.609Z,30.02
2023-04-27T13:10:34.394Z,29.32
2023-04-27T13:13:02.425Z,29.39
2023-04-27T13:15:30.330Z,28.66
2023-04-27T13:17:59.337Z,29.01
2023-04-27T13:20:27.116Z,29.14
2023-04-27T13:22:55.039Z,29.51
2023-04-27T13:25:24.496Z,29.40
2023-04-27T13:27:52.433Z,28.67
2023-04-27T13:30:20.425Z,28.72
2023-04-27T13:32:48.183Z,28.96
2023-04-27T13:35:15.952Z,28.91
2023-04-27T13:37:43.735Z,28.74
2023-04-27T13:40:13.286Z,29.07
2023-04-27T13:42:42.421Z,28.91
2023-04-27T13:45:11.326Z,29.00
2023-04-27T13:47:40.405Z,28.98
2023-04-27T13:50:09.848Z,29.22
2023-04-27T13:52:38.728Z,29.59
2023-04-27T13:55:07.894Z,30.14
2023-04-27T13:57:36.051Z,29.61
2023-04-27T14:00:08.077Z,29.79
2023-04-27T14:02:36.351Z,29.48
2023-04-27T14:05:06.455Z,29.13
2023-04-27T14:07:35.610Z,28.35
2023-04-27T14:10:03.928Z,28.98
2023-04-27T14:12:32.533Z,28.94
2023-04-27T14:15:00.648Z,29.42
2023-04-27T14:17:29.952Z,29.13
2023-04-27T14:19:57.757Z,29.03
2023-04-27T14:22:25.638Z,29.15
2023-04-27T14:24:53.496Z,29.33
2023-04-27T14:27:21.252Z,29.65
2023-04-27T14:29:49.138Z,29.67
2023-04-27T14:32:17.082Z,29.60
2023-04-27T14:34:46.381Z,30.14
2023-04-27T14:37:14.217Z,30.33
2023-04-27T14:39:44.462Z,31.99
2023-04-27T14:42:13.186Z,30.75
2023-04-27T14:44:41.118Z,30.42
2023-04-27T14:47:09.051Z,31.24
2023-04-27T14:49:36.879Z,31.24
2023-04-27T14:52:06.853Z,31.08
2023-04-27T14:54:35.655Z,31.61
2023-04-27T14:57:03.648Z,31.79
2023-04-27T14:59:31.518Z,31.45
2023-04-27T15:02:01.140Z,31.16
2023-04-27T15:04:29.268Z,31.71
2023-04-27T15:06:57.450Z,32.02
2023-04-27T15:09:26.740Z,31.89
2023-04-27T15:11:55.826Z,31.81
2023-04-27T15:14:23.711Z,32.02
2023-04-27T15:16:51.817Z,32.30
2023-04-27T15:19:19.592Z,31.84
2023-04-27T15:21:48.669Z,31.96
2023-04-27T15:24:16.549Z,32.03
2023-04-27T15:26:48.079Z,32.60
2023-04-27T15:29:16.412Z,32.87
2023-04-27T15:31:45.035Z,33.27
2023-04-27T15:34:12.974Z,33.74
2023-04-27T15:36:40.750Z,34.05
2023-04-27T15:39:10.141Z,34.03
2023-04-27T15:41:38.347Z,33.77
2023-04-27T15:44:07.673Z,33.53
2023-04-27T15:46:36.369Z,33.90
2023-04-27T15:49:04.254Z,34.26
2023-04-27T15:51:32.349Z,33.57
2023-04-27T15:54:00.233Z,33.18
2023-04-27T15:56:30.511Z,34.07
2023-04-27T15:58:58.790Z,33.90
2023-04-27T16:01:28.116Z,33.83
2023-04-27T16:03:56.672Z,34.77
2023-04-27T16:06:30.378Z,35.24
2023-04-27T16:08:58.211Z,34.90
2023-04-27T16:11:26.079Z,34.62
2023-04-27T16:13:54.072Z,35.13
2023-04-27T16:16:21.963Z,34.92
2023-04-27T16:18:51.233Z,34.76
2023-04-27T16:21:19.343Z,35.23
2023-04-27T16:23:47.327Z,34.97
2023-04-27T16:26:15.228Z,35.93
2023-04-27T16:28:43.168Z,36.03
2023-04-27T16:31:11.270Z,36.05
2023-04-27T16:33:39.128Z,35.95
2023-04-27T16:36:09.004Z,36.46
2023-04-27T16:38:39.141Z,35.68
2023-04-27T16:41:07.396Z,35.33
2023-04-27T16:43:35.277Z,36.24
2023-04-27T16:46:03.178Z,35.96
2023-04-27T16:48:31.309Z,36.35
2023-04-27T16:50:59.477Z,36.81
2023-04-27T16:53:28.782Z,36.94
2023-04-27T16:55:56.648Z,36.45
2023-04-27T16:58:24.486Z,36.64
2023-04-27T17:00:52.330Z,37.24
2023-04-27T17:03:20.294Z,37.19
2023-04-27T17:05:48.341Z,37.16
2023-04-27T17:08:16.194Z,37.18
2023-04-27T17:10:46.472Z,37.17
2023-04-27T17:13:16.472Z,36.73
2023-04-27T17:15:44.310Z,36.76
2023-04-27T17:18:12.200Z,37.41
2023-04-27T17:20:41.689Z,37.63
2023-04-27T17:23:10.215Z,37.63
2023-04-27T17:25:38.010Z,37.42
2023-04-27T17:28:07.314Z,37.92
2023-04-27T17:30:35.189Z,38.20
2023-04-27T17:33:03.863Z,38.06
2023-04-27T17:35:31.972Z,37.97
2023-04-27T17:37:59.832Z,38.39
2023-04-27T17:40:27.731Z,38.38
2023-04-27T17:42:57.858Z,39.38
2023-04-27T17:45:28.778Z,38.36
2023-04-27T17:47:56.715Z,38.52
2023-04-27T17:50:25.892Z,39.20
2023-04-27T17:52:54.228Z,38.97
2023-04-27T17:55:22.318Z,39.05
2023-04-27T17:57:50.495Z,40.02
2023-04-27T18:00:19.434Z,40.09
2023-04-27T18:02:49.724Z,40.10
2023-04-27T18:05:18.291Z,40.16
2023-04-27T18:07:47.321Z,40.00
2023-04-27T18:10:15.269Z,40.06
2023-04-27T18:12:43.166Z,40.27
2023-04-27T18:15:11.812Z,40.12
2023-04-27T18:17:39.677Z,40.39
2023-04-27T18:20:10.819Z,40.67
2023-04-27T18:22:39.828Z,40.86
2023-04-27T18:25:08.828Z,41.37
2023-04-27T18:27:37.496Z,42.00
2023-04-27T18:30:06.275Z,41.98
2023-04-27T18:32:34.782Z,42.57
2023-04-27T18:35:02.928Z,42.17
2023-04-27T18:37:32.254Z,42.85
2023-04-27T18:40:00.136Z,42.80
2023-04-27T18:42:27.964Z,43.03
2023-04-27T18:44:57.708Z,43.34
2023-04-27T18:47:26.461Z,43.04
2023-04-27T18:49:54.298Z,43.41
2023-04-27T18:52:22.072Z,43.58
2023-04-27T18:54:51.223Z,44.29
2023-04-27T18:57:19.007Z,44.75
2023-04-27T18:59:46.786Z,45.33
2023-04-27T19:02:14.825Z,45.87
2023-04-27T19:04:45.578Z,45.83
2023-04-27T19:07:23.273Z,45.86
2023-04-27T19:09:54.860Z,46.68
2023-04-27T19:12:23.882Z,46.75
2023-04-27T19:14:52.393Z,46.42
2023-04-27T19:17:20.605Z,46.45
2023-04-27T19:19:48.630Z,46.54
2023-04-27T19:22:16.601Z,46.53
2023-04-27T19:24:44.494Z,46.13
2023-04-27T19:27:13.928Z,46.56
2023-04-27T19:29:50.871Z,47.28
2023-04-27T19:32:19.525Z,48.49
2023-04-27T19:34:47.701Z,49.35
2023-04-27T19:37:16.009Z,48.97
2023-04-27T19:39:43.895Z,50.17
2023-04-27T19:42:14.154Z,51.51
2023-04-27T19:44:42.033Z,53.58
2023-04-27T19:47:10.761Z,55.60
2023-04-27T19:49:39.011Z,56.96
2023-04-27T19:52:07.543Z,56.90
2023-04-27T19:54:36.116Z,57.79
2023-04-27T19:57:04.046Z,58.72
2023-04-27T19:59:33.272Z,59.07
2023-04-27T20:02:01.074Z,58.73
2023-04-27T20:04:29.096Z,59.00
2023-04-27T20:06:57.013Z,58.82
2023-04-27T20:09:24.778Z,59.04
2023-04-27T20:11:52.624Z,59.09
2023-04-27T20:14:20.525Z,58.62
2023-04-27T20:16:49.726Z,58.15
2023-04-27T20:19:19.351Z,57.65
2023-04-27T20:21:47.182Z,58.18
2023-04-27T20:24:15.114Z,57.99
2023-04-27T20:26:43.074Z,58.25
2023-04-27T20:29:10.854Z,58.14
2023-04-27T20:31:38.599Z,58.48
2023-04-27T20:34:07.795Z,59.30
2023-04-27T20:36:35.573Z,59.80
2023-04-27T20:39:05.575Z,59.78
2023-04-27T20:41:34.390Z,59.75
2023-04-27T20:44:02.720Z,58.84
2023-04-27T20:46:30.624Z,58.82
2023-04-27T20:48:58.354Z,58.84
2023-04-27T20:51:27.869Z,58.74
2023-04-27T20:53:55.933Z,58.27
2023-04-27T20:56:23.732Z,58.02
2023-04-27T20:58:51.529Z,57.41
2023-04-27T21:01:19.715Z,57.50
2023-04-27T21:03:47.663Z,57.63
2023-04-27T21:06:15.699Z,57.86
2023-04-27T21:08:44.863Z,58.06
2023-04-27T21:11:12.834Z,58.34
2023-04-27T21:13:40.571Z,58.02
2023-04-27T21:16:08.300Z,58.30
2023-04-27T21:18:36.572Z,59.43
2023-04-27T21:21:04.586Z,59.94
2023-04-27T21:23:35.241Z,60.63
2023-04-27T21:26:04.362Z,60.48
2023-04-27T21:28:32.568Z,60.76
2023-04-27T21:31:00.375Z,60.51
2023-04-27T21:33:28.399Z,60.39
2023-04-27T21:35:56.144Z,61.12
2023-04-27T21:38:23.943Z,61.53
2023-04-27T21:40:51.786Z,62.10
2023-04-27T21:43:21.006Z,62.81
2023-04-27T21:45:49.091Z,63.38
2023-04-27T21:48:16.842Z,63.16
2023-04-27T21:50:45.188Z,62.72
2023-04-27T21:53:12.920Z,62.80
2023-04-27T21:55:40.736Z,62.24
2023-04-27T21:58:08.555Z,62.13
2023-04-27T22:00:37.804Z,62.87
2023-04-27T22:03:05.746Z,62.25
2023-04-27T22:05:37.027Z,62.54
2023-04-27T22:08:05.281Z,62.59
2023-04-27T22:10:34.263Z,62.78
2023-04-27T22:13:08.176Z,62.40
2023-04-27T22:15:44.275Z,62.49
2023-04-27T22:18:12.189Z,62.41
2023-04-27T22:20:40.345Z,62.80
2023-04-27T22:23:09.270Z,62.59
2023-04-27T22:25:37.158Z,63.24
2023-04-27T22:28:05.040Z,63.33
2023-04-27T22:30:32.798Z,63.13
2023-04-27T22:33:02.962Z,63.65
2023-04-27T22:35:31.024Z,64.21
2023-04-27T22:37:59.997Z,64.32
2023-04-27T22:40:27.832Z,64.65
2023-04-27T22:42:56.164Z,64.46
2023-04-27T22:45:24.719Z,63.82
2023-04-27T22:47:52.729Z,64.14
2023-04-27T22:50:22.035Z,64.39
2023-04-27T22:52:50.113Z,64.43
2023-04-27T22:55:17.873Z,65.03
2023-04-27T22:57:45.683Z,65.92
2023-04-27T23:00:14.165Z,66.05
2023-04-27T23:02:42.705Z,65.26
2023-04-27T23:05:12.413Z,65.39
2023-04-27T23:07:42.924Z,65.89
2023-04-27T23:10:11.358Z,65.41
2023-04-27T23:12:39.114Z,67.04
2023-04-27T23:15:08.197Z,66.52
2023-04-27T23:17:36.023Z,66.78
2023-04-27T23:20:11.212Z,66.79
2023-04-27T23:22:46.523Z,67.78
2023-04-27T23:25:14.436Z,67.75
2023-04-27T23:27:42.176Z,66.55
2023-04-27T23:30:11.138Z,68.11
2023-04-27T23:32:39.084Z,67.00
2023-04-27T23:35:07.527Z,67.60
2023-04-27T23:37:35.285Z,68.90
2023-04-27T23:40:06.263Z,69.65
2023-04-27T23:42:34.177Z,70.92
2023-04-27T23:45:02.353Z,71.13
2023-04-27T23:47:30.516Z,72.00
2023-04-27T23:49:58.937Z,74.03
2023-04-27T23:52:26.804Z,73.42
2023-04-27T23:54:54.522Z,74.98
2023-04-27T23:57:23.577Z,75.34
2023-04-27T23:59:51.343Z,75.91
